Portada
METAR-TAF:

METAR-TAF

Aeroports :

Aeroport Internacional de Ruzyně

Praga, República Txeca

latitud: 50-06N, longitud: 014-15E, altitud: 365 m

Observació

L'informe es va fer fa 41 minuts, a les 13:30 UTC
Vent 9 kt del Sud, variant entre Est/Sud-Est i Sud/Sud-Oest
Temperatura 30°C
Humitat 38%
Pressió 1015 hPa
Visibilitat 10 km o més
sense núvols per sota de 1500 mi sense presència de cumulonimbus.

METAR: LKPR 181330Z 17009KT 120V210 CAVOK 30/14 Q1015 NOSIG

Hora: 16:11 (14:11 UTC)

Pronòstic

L'informe es va fer fa 3 hores i 11 minuts, a les 11:00 UTC
Pronòstic vàlid del 18 a les 12 UTC al 19 a les 18 UTC
Vent 8 kt del Sud-Est
Visibilitat 10 km o més
sense núvols per sota de 1500 mi sense presència de cumulonimbus.
Temporalment
l' 18 a les 15 UTC al 18 a les 18 UTC
Vent 14 kt del Sud/Sud-Est
Evolucionant progressivament
l' 19 a les 07 UTC al 19 a les 09 UTC
Vent 6 kt del Nord-Est

TAF: LKPR 181100Z 1812/1918 13008KT CAVOK TEMPO 1815/1818 15014KT BECMG 1907/1909 04006KT

Observacions i pronòstics meteorològics de més de 4000 aeroports (METAR i TAF).

Les estacions disponibles són els punts grocs i vermells al mapa.

Posi el ratolí al punt desitjat per veure el nom de l'estació.

Feu clic per veure les observacions i els pronòstics meteorològics.

Per canviar el mapa: feu clic els botons verds amb una creu de color negre per apropar; al botó verd amb un guió per allunyar la imatge; o en les fletxes verdes per a mapes adjacents.


METAR-TAF: